Terminal Aerodrome Forecast
Issued by NWS

Home | Current Version | Previous Version | Text Only | Print | Product List | Glossary On
Versions: 1 2 3 4 5 6 7 8 9 10 11 12 13 14 15 16 17 18 19 20 21 22 23
545
FTUS43 KJKL 222320
TAFSME
TAF
KSME 222320Z 2300/2324 04005KT P6SM VCSH SCT010 OVC035
     FM230200 03008KT P6SM VCSH OVC020
     FM230300 02008KT 6SM SHRA OVC015
     FM230500 36008KT 4SM SHRA OVC008
     FM231100 34010KT 2SM SHRA OVC004
     FM231800 32012G20KT P6SM VCSH OVC008
     FM232000 31011G19KT P6SM OVC009=

USA.gov is the U.S. government's official web portal to all federal, state and local government web resources and services.